sensor_id;sensor_type;location;lat;lon;timestamp;P1;durP1;ratioP1;P2;durP2;ratioP2
41293;SDS011;27037;52.010;4.446;2023-04-08T00:02:11;39.00;;;17.73;;
41293;SDS011;27037;52.010;4.446;2023-04-08T00:04:37;43.65;;;18.38;;
41293;SDS011;27037;52.010;4.446;2023-04-08T00:07:02;45.15;;;19.23;;
41293;SDS011;27037;52.010;4.446;2023-04-08T00:09:28;42.35;;;19.50;;
41293;SDS011;27037;52.010;4.446;2023-04-08T00:11:53;54.13;;;21.80;;
41293;SDS011;27037;52.010;4.446;2023-04-08T00:14:21;44.38;;;20.27;;
41293;SDS011;27037;52.010;4.446;2023-04-08T00:16:46;47.83;;;21.42;;
41293;SDS011;27037;52.010;4.446;2023-04-08T00:19:12;46.28;;;21.05;;
41293;SDS011;27037;52.010;4.446;2023-04-08T00:21:38;48.45;;;22.55;;
41293;SDS011;27037;52.010;4.446;2023-04-08T00:24:03;52.25;;;22.60;;
41293;SDS011;27037;52.010;4.446;2023-04-08T00:26:29;51.25;;;22.90;;
41293;SDS011;27037;52.010;4.446;2023-04-08T00:28:55;53.30;;;23.83;;
41293;SDS011;27037;52.010;4.446;2023-04-08T00:31:20;54.42;;;23.30;;
41293;SDS011;27037;52.010;4.446;2023-04-08T00:33:46;50.90;;;22.48;;
41293;SDS011;27037;52.010;4.446;2023-04-08T00:36:12;57.42;;;24.33;;
41293;SDS011;27037;52.010;4.446;2023-04-08T00:38:37;52.00;;;25.13;;
41293;SDS011;27037;52.010;4.446;2023-04-08T00:41:03;53.35;;;25.60;;
41293;SDS011;27037;52.010;4.446;2023-04-08T00:43:28;50.95;;;23.90;;
41293;SDS011;27037;52.010;4.446;2023-04-08T00:45:54;55.85;;;24.83;;
41293;SDS011;27037;52.010;4.446;2023-04-08T00:48:20;50.58;;;24.42;;
41293;SDS011;27037;52.010;4.446;2023-04-08T00:50:45;60.28;;;26.08;;
41293;SDS011;27037;52.010;4.446;2023-04-08T00:53:16;57.25;;;25.27;;
41293;SDS011;27037;52.010;4.446;2023-04-08T00:55:43;54.63;;;25.60;;
41293;SDS011;27037;52.010;4.446;2023-04-08T00:58:09;57.03;;;26.73;;
41293;SDS011;27037;52.010;4.446;2023-04-08T01:00:35;61.20;;;26.63;;
41293;SDS011;27037;52.010;4.446;2023-04-08T01:03:10;60.25;;;28.80;;
41293;SDS011;27037;52.010;4.446;2023-04-08T01:05:52;56.95;;;26.23;;
41293;SDS011;27037;52.010;4.446;2023-04-08T01:08:18;64.43;;;28.88;;
41293;SDS011;27037;52.010;4.446;2023-04-08T01:10:47;62.22;;;28.10;;
41293;SDS011;27037;52.010;4.446;2023-04-08T01:13:17;59.45;;;28.42;;
41293;SDS011;27037;52.010;4.446;2023-04-08T01:15:46;62.33;;;28.83;;
41293;SDS011;27037;52.010;4.446;2023-04-08T01:18:12;60.38;;;28.85;;
41293;SDS011;27037;52.010;4.446;2023-04-08T01:20:40;59.20;;;28.17;;
41293;SDS011;27037;52.010;4.446;2023-04-08T01:23:12;60.05;;;30.23;;
41293;SDS011;27037;52.010;4.446;2023-04-08T01:25:50;64.05;;;29.50;;
41293;SDS011;27037;52.010;4.446;2023-04-08T01:28:21;66.30;;;29.42;;
41293;SDS011;27037;52.010;4.446;2023-04-08T01:30:49;63.67;;;30.15;;
41293;SDS011;27037;52.010;4.446;2023-04-08T01:33:15;62.92;;;29.27;;
41293;SDS011;27037;52.010;4.446;2023-04-08T01:35:42;61.70;;;29.23;;
41293;SDS011;27037;52.010;4.446;2023-04-08T01:38:10;60.58;;;29.73;;
41293;SDS011;27037;52.010;4.446;2023-04-08T01:40:39;63.10;;;29.30;;
41293;SDS011;27037;52.010;4.446;2023-04-08T01:43:07;63.95;;;30.45;;
41293;SDS011;27037;52.010;4.446;2023-04-08T01:45:34;62.10;;;28.85;;
41293;SDS011;27037;52.010;4.446;2023-04-08T01:48:00;68.30;;;30.17;;
41293;SDS011;27037;52.010;4.446;2023-04-08T01:50:28;65.07;;;29.60;;
41293;SDS011;27037;52.010;4.446;2023-04-08T01:52:55;64.60;;;30.10;;
41293;SDS011;27037;52.010;4.446;2023-04-08T01:55:23;60.95;;;30.00;;
41293;SDS011;27037;52.010;4.446;2023-04-08T01:57:50;67.90;;;31.30;;
41293;SDS011;27037;52.010;4.446;2023-04-08T02:00:21;60.65;;;29.55;;
41293;SDS011;27037;52.010;4.446;2023-04-08T02:02:50;68.40;;;31.42;;
41293;SDS011;27037;52.010;4.446;2023-04-08T02:05:16;67.68;;;29.80;;
41293;SDS011;27037;52.010;4.446;2023-04-08T02:07:42;69.80;;;32.03;;
41293;SDS011;27037;52.010;4.446;2023-04-08T02:10:09;69.68;;;32.20;;
41293;SDS011;27037;52.010;4.446;2023-04-08T02:12:35;72.15;;;31.95;;
41293;SDS011;27037;52.010;4.446;2023-04-08T02:15:01;67.20;;;30.83;;
41293;SDS011;27037;52.010;4.446;2023-04-08T02:17:44;67.82;;;32.58;;
41293;SDS011;27037;52.010;4.446;2023-04-08T02:22:47;72.60;;;31.88;;
41293;SDS011;27037;52.010;4.446;2023-04-08T02:25:18;72.38;;;32.65;;
41293;SDS011;27037;52.010;4.446;2023-04-08T02:27:48;70.43;;;31.30;;
41293;SDS011;27037;52.010;4.446;2023-04-08T02:30:16;74.35;;;32.50;;
41293;SDS011;27037;52.010;4.446;2023-04-08T02:32:43;72.57;;;32.00;;
41293;SDS011;27037;52.010;4.446;2023-04-08T02:35:10;74.05;;;32.67;;
41293;SDS011;27037;52.010;4.446;2023-04-08T02:37:37;75.20;;;34.88;;
41293;SDS011;27037;52.010;4.446;2023-04-08T02:40:03;80.88;;;33.55;;
41293;SDS011;27037;52.010;4.446;2023-04-08T02:42:29;75.72;;;34.05;;
41293;SDS011;27037;52.010;4.446;2023-04-08T02:44:55;76.20;;;33.90;;
41293;SDS011;27037;52.010;4.446;2023-04-08T02:47:21;75.75;;;32.97;;
41293;SDS011;27037;52.010;4.446;2023-04-08T02:49:47;75.05;;;33.20;;
41293;SDS011;27037;52.010;4.446;2023-04-08T02:52:12;75.78;;;32.85;;
41293;SDS011;27037;52.010;4.446;2023-04-08T02:54:38;75.63;;;33.80;;
41293;SDS011;27037;52.010;4.446;2023-04-08T02:57:03;81.28;;;34.65;;
41293;SDS011;27037;52.010;4.446;2023-04-08T02:59:29;75.10;;;33.42;;
41293;SDS011;27037;52.010;4.446;2023-04-08T03:01:55;81.75;;;33.60;;
41293;SDS011;27037;52.010;4.446;2023-04-08T03:04:20;79.88;;;33.95;;
41293;SDS011;27037;52.010;4.446;2023-04-08T03:06:46;77.93;;;33.85;;
41293;SDS011;27037;52.010;4.446;2023-04-08T03:09:11;82.75;;;34.08;;
41293;SDS011;27037;52.010;4.446;2023-04-08T03:11:37;79.43;;;34.13;;
41293;SDS011;27037;52.010;4.446;2023-04-08T03:14:02;79.82;;;34.20;;
41293;SDS011;27037;52.010;4.446;2023-04-08T03:16:28;77.13;;;33.03;;
41293;SDS011;27037;52.010;4.446;2023-04-08T03:18:53;75.18;;;33.72;;
41293;SDS011;27037;52.010;4.446;2023-04-08T03:21:19;78.50;;;33.63;;
41293;SDS011;27037;52.010;4.446;2023-04-08T03:23:45;74.47;;;32.40;;
41293;SDS011;27037;52.010;4.446;2023-04-08T03:26:10;79.68;;;32.88;;
41293;SDS011;27037;52.010;4.446;2023-04-08T03:28:36;77.10;;;34.20;;
41293;SDS011;27037;52.010;4.446;2023-04-08T03:31:02;79.50;;;33.03;;
41293;SDS011;27037;52.010;4.446;2023-04-08T03:33:28;79.95;;;33.38;;
41293;SDS011;27037;52.010;4.446;2023-04-08T03:35:54;80.05;;;34.85;;
41293;SDS011;27037;52.010;4.446;2023-04-08T03:38:20;74.85;;;32.90;;
41293;SDS011;27037;52.010;4.446;2023-04-08T03:40:45;76.38;;;32.97;;
41293;SDS011;27037;52.010;4.446;2023-04-08T03:43:12;75.63;;;33.22;;
41293;SDS011;27037;52.010;4.446;2023-04-08T03:45:38;82.97;;;34.50;;
41293;SDS011;27037;52.010;4.446;2023-04-08T03:48:04;78.85;;;32.92;;
41293;SDS011;27037;52.010;4.446;2023-04-08T03:50:30;80.45;;;34.78;;
41293;SDS011;27037;52.010;4.446;2023-04-08T03:52:55;82.97;;;35.10;;
41293;SDS011;27037;52.010;4.446;2023-04-08T03:55:21;81.95;;;33.60;;
41293;SDS011;27037;52.010;4.446;2023-04-08T03:57:47;84.30;;;35.30;;
41293;SDS011;27037;52.010;4.446;2023-04-08T04:00:13;77.47;;;34.70;;
41293;SDS011;27037;52.010;4.446;2023-04-08T04:02:38;79.28;;;32.67;;
41293;SDS011;27037;52.010;4.446;2023-04-08T04:05:04;77.55;;;33.35;;
41293;SDS011;27037;52.010;4.446;2023-04-08T04:07:30;86.10;;;35.42;;
41293;SDS011;27037;52.010;4.446;2023-04-08T04:09:56;84.22;;;36.30;;
41293;SDS011;27037;52.010;4.446;2023-04-08T04:12:22;85.78;;;34.83;;
41293;SDS011;27037;52.010;4.446;2023-04-08T04:14:47;84.95;;;34.95;;
41293;SDS011;27037;52.010;4.446;2023-04-08T04:17:13;81.40;;;34.58;;
41293;SDS011;27037;52.010;4.446;2023-04-08T04:19:39;78.25;;;33.20;;
41293;SDS011;27037;52.010;4.446;2023-04-08T04:22:05;83.90;;;34.58;;
41293;SDS011;27037;52.010;4.446;2023-04-08T04:24:30;75.60;;;32.47;;
41293;SDS011;27037;52.010;4.446;2023-04-08T04:26:56;87.55;;;34.50;;
41293;SDS011;27037;52.010;4.446;2023-04-08T04:29:21;73.30;;;31.75;;
41293;SDS011;27037;52.010;4.446;2023-04-08T04:31:47;77.32;;;31.88;;
41293;SDS011;27037;52.010;4.446;2023-04-08T04:34:13;82.68;;;33.45;;
41293;SDS011;27037;52.010;4.446;2023-04-08T04:36:38;83.07;;;34.90;;
41293;SDS011;27037;52.010;4.446;2023-04-08T04:39:04;85.47;;;36.58;;
41293;SDS011;27037;52.010;4.446;2023-04-08T04:41:30;82.53;;;36.65;;
41293;SDS011;27037;52.010;4.446;2023-04-08T04:43:55;81.93;;;34.35;;
41293;SDS011;27037;52.010;4.446;2023-04-08T04:46:21;74.57;;;33.88;;
41293;SDS011;27037;52.010;4.446;2023-04-08T04:48:46;74.07;;;34.08;;
41293;SDS011;27037;52.010;4.446;2023-04-08T04:51:12;82.75;;;36.20;;
41293;SDS011;27037;52.010;4.446;2023-04-08T04:53:37;75.20;;;34.67;;
41293;SDS011;27037;52.010;4.446;2023-04-08T04:56:03;73.57;;;33.20;;
41293;SDS011;27037;52.010;4.446;2023-04-08T04:58:29;78.38;;;34.90;;
41293;SDS011;27037;52.010;4.446;2023-04-08T05:00:55;76.53;;;33.58;;
41293;SDS011;27037;52.010;4.446;2023-04-08T05:03:21;77.20;;;34.75;;
41293;SDS011;27037;52.010;4.446;2023-04-08T05:05:50;74.43;;;34.22;;
41293;SDS011;27037;52.010;4.446;2023-04-08T05:08:17;72.60;;;33.53;;
41293;SDS011;27037;52.010;4.446;2023-04-08T05:10:42;73.00;;;34.92;;
41293;SDS011;27037;52.010;4.446;2023-04-08T05:13:08;74.82;;;35.08;;
41293;SDS011;27037;52.010;4.446;2023-04-08T05:15:33;76.00;;;33.95;;
41293;SDS011;27037;52.010;4.446;2023-04-08T05:17:59;69.45;;;33.30;;
41293;SDS011;27037;52.010;4.446;2023-04-08T05:20:25;73.07;;;33.60;;
41293;SDS011;27037;52.010;4.446;2023-04-08T05:22:50;71.20;;;33.83;;
41293;SDS011;27037;52.010;4.446;2023-04-08T05:25:16;73.82;;;35.05;;
41293;SDS011;27037;52.010;4.446;2023-04-08T05:27:41;71.15;;;34.22;;
41293;SDS011;27037;52.010;4.446;2023-04-08T05:30:07;71.68;;;34.97;;
41293;SDS011;27037;52.010;4.446;2023-04-08T05:32:35;82.05;;;36.35;;
41293;SDS011;27037;52.010;4.446;2023-04-08T05:35:03;81.85;;;37.05;;
41293;SDS011;27037;52.010;4.446;2023-04-08T05:37:29;82.90;;;35.65;;
41293;SDS011;27037;52.010;4.446;2023-04-08T05:39:55;81.53;;;35.75;;
41293;SDS011;27037;52.010;4.446;2023-04-08T05:42:20;85.47;;;36.80;;
41293;SDS011;27037;52.010;4.446;2023-04-08T05:44:46;80.80;;;35.45;;
41293;SDS011;27037;52.010;4.446;2023-04-08T05:47:12;84.35;;;35.42;;
41293;SDS011;27037;52.010;4.446;2023-04-08T05:49:38;81.50;;;35.33;;
41293;SDS011;27037;52.010;4.446;2023-04-08T05:52:04;90.97;;;36.20;;
41293;SDS011;27037;52.010;4.446;2023-04-08T05:54:30;102.95;;;35.53;;
41293;SDS011;27037;52.010;4.446;2023-04-08T05:56:56;116.78;;;33.80;;
41293;SDS011;27037;52.010;4.446;2023-04-08T05:59:21;109.15;;;32.90;;
41293;SDS011;27037;52.010;4.446;2023-04-08T06:01:47;132.02;;;32.05;;
41293;SDS011;27037;52.010;4.446;2023-04-08T06:04:13;82.35;;;30.95;;
41293;SDS011;27037;52.010;4.446;2023-04-08T06:06:38;122.55;;;30.77;;
41293;SDS011;27037;52.010;4.446;2023-04-08T06:09:04;127.38;;;30.42;;
41293;SDS011;27037;52.010;4.446;2023-04-08T06:11:30;90.88;;;31.27;;
41293;SDS011;27037;52.010;4.446;2023-04-08T06:13:56;101.72;;;29.17;;
41293;SDS011;27037;52.010;4.446;2023-04-08T06:16:21;70.15;;;29.33;;
41293;SDS011;27037;52.010;4.446;2023-04-08T06:18:47;111.78;;;30.52;;
41293;SDS011;27037;52.010;4.446;2023-04-08T06:21:12;71.30;;;29.42;;
41293;SDS011;27037;52.010;4.446;2023-04-08T06:23:38;124.78;;;32.08;;
41293;SDS011;27037;52.010;4.446;2023-04-08T06:26:04;80.93;;;30.23;;
41293;SDS011;27037;52.010;4.446;2023-04-08T06:28:30;73.88;;;31.40;;
41293;SDS011;27037;52.010;4.446;2023-04-08T06:30:56;143.13;;;34.90;;
41293;SDS011;27037;52.010;4.446;2023-04-08T06:33:22;103.15;;;35.20;;
41293;SDS011;27037;52.010;4.446;2023-04-08T06:35:47;85.88;;;33.95;;
41293;SDS011;27037;52.010;4.446;2023-04-08T06:38:13;97.88;;;36.20;;
41293;SDS011;27037;52.010;4.446;2023-04-08T06:40:38;100.97;;;36.50;;
41293;SDS011;27037;52.010;4.446;2023-04-08T06:43:04;99.13;;;37.50;;
41293;SDS011;27037;52.010;4.446;2023-04-08T06:45:31;92.45;;;37.50;;
41293;SDS011;27037;52.010;4.446;2023-04-08T06:48:00;104.68;;;37.78;;
41293;SDS011;27037;52.010;4.446;2023-04-08T06:50:26;86.18;;;36.67;;
41293;SDS011;27037;52.010;4.446;2023-04-08T06:52:51;84.70;;;35.85;;
41293;SDS011;27037;52.010;4.446;2023-04-08T06:55:17;85.35;;;36.33;;
41293;SDS011;27037;52.010;4.446;2023-04-08T06:57:43;81.03;;;34.42;;
41293;SDS011;27037;52.010;4.446;2023-04-08T07:00:08;84.45;;;36.63;;
41293;SDS011;27037;52.010;4.446;2023-04-08T07:02:34;81.43;;;36.53;;
41293;SDS011;27037;52.010;4.446;2023-04-08T07:05:00;74.20;;;34.60;;
41293;SDS011;27037;52.010;4.446;2023-04-08T07:07:26;78.07;;;35.97;;
41293;SDS011;27037;52.010;4.446;2023-04-08T07:09:51;74.65;;;35.03;;
41293;SDS011;27037;52.010;4.446;2023-04-08T07:12:17;73.82;;;33.88;;
41293;SDS011;27037;52.010;4.446;2023-04-08T07:14:42;76.10;;;35.47;;
41293;SDS011;27037;52.010;4.446;2023-04-08T07:17:08;75.32;;;36.17;;
41293;SDS011;27037;52.010;4.446;2023-04-08T07:19:34;74.90;;;33.95;;
41293;SDS011;27037;52.010;4.446;2023-04-08T07:22:00;73.90;;;35.92;;
41293;SDS011;27037;52.010;4.446;2023-04-08T07:24:25;70.18;;;35.20;;
41293;SDS011;27037;52.010;4.446;2023-04-08T07:26:51;73.32;;;35.33;;
41293;SDS011;27037;52.010;4.446;2023-04-08T07:29:17;72.90;;;35.50;;
41293;SDS011;27037;52.010;4.446;2023-04-08T07:31:43;74.40;;;35.25;;
41293;SDS011;27037;52.010;4.446;2023-04-08T07:34:08;64.32;;;33.95;;
41293;SDS011;27037;52.010;4.446;2023-04-08T07:36:34;66.95;;;33.65;;
41293;SDS011;27037;52.010;4.446;2023-04-08T07:39:00;66.57;;;34.35;;
41293;SDS011;27037;52.010;4.446;2023-04-08T07:41:25;67.95;;;34.70;;
41293;SDS011;27037;52.010;4.446;2023-04-08T07:43:51;63.83;;;33.38;;
41293;SDS011;27037;52.010;4.446;2023-04-08T07:46:17;67.75;;;34.35;;
41293;SDS011;27037;52.010;4.446;2023-04-08T07:48:42;64.00;;;32.92;;
41293;SDS011;27037;52.010;4.446;2023-04-08T07:51:08;63.70;;;34.58;;
41293;SDS011;27037;52.010;4.446;2023-04-08T07:53:34;64.45;;;33.92;;
41293;SDS011;27037;52.010;4.446;2023-04-08T07:56:00;62.30;;;34.22;;
41293;SDS011;27037;52.010;4.446;2023-04-08T07:58:28;65.07;;;34.72;;
41293;SDS011;27037;52.010;4.446;2023-04-08T08:00:54;69.20;;;36.95;;
41293;SDS011;27037;52.010;4.446;2023-04-08T08:03:21;69.88;;;36.97;;
41293;SDS011;27037;52.010;4.446;2023-04-08T08:05:47;65.88;;;35.88;;
41293;SDS011;27037;52.010;4.446;2023-04-08T08:08:13;76.22;;;37.97;;
41293;SDS011;27037;52.010;4.446;2023-04-08T08:10:38;76.45;;;38.83;;
41293;SDS011;27037;52.010;4.446;2023-04-08T08:13:05;78.30;;;40.30;;
41293;SDS011;27037;52.010;4.446;2023-04-08T08:15:31;74.97;;;39.83;;
41293;SDS011;27037;52.010;4.446;2023-04-08T08:17:57;78.10;;;40.90;;
41293;SDS011;27037;52.010;4.446;2023-04-08T08:20:22;82.50;;;42.25;;
41293;SDS011;27037;52.010;4.446;2023-04-08T08:22:48;74.45;;;38.53;;
41293;SDS011;27037;52.010;4.446;2023-04-08T08:25:14;80.97;;;41.10;;
41293;SDS011;27037;52.010;4.446;2023-04-08T08:27:40;71.55;;;38.40;;
41293;SDS011;27037;52.010;4.446;2023-04-08T08:30:07;68.00;;;37.30;;
41293;SDS011;27037;52.010;4.446;2023-04-08T08:32:33;61.30;;;34.67;;
41293;SDS011;27037;52.010;4.446;2023-04-08T08:34:59;57.63;;;34.33;;
41293;SDS011;27037;52.010;4.446;2023-04-08T08:37:25;56.85;;;33.67;;
41293;SDS011;27037;52.010;4.446;2023-04-08T08:39:50;58.42;;;35.08;;
41293;SDS011;27037;52.010;4.446;2023-04-08T08:42:22;58.80;;;34.30;;
41293;SDS011;27037;52.010;4.446;2023-04-08T08:44:49;57.50;;;33.10;;
41293;SDS011;27037;52.010;4.446;2023-04-08T08:47:15;55.85;;;33.88;;
41293;SDS011;27037;52.010;4.446;2023-04-08T08:49:41;55.45;;;33.22;;
41293;SDS011;27037;52.010;4.446;2023-04-08T08:52:08;56.00;;;33.72;;
41293;SDS011;27037;52.010;4.446;2023-04-08T08:54:34;52.33;;;31.85;;
41293;SDS011;27037;52.010;4.446;2023-04-08T08:56:59;47.60;;;29.50;;
41293;SDS011;27037;52.010;4.446;2023-04-08T08:59:25;50.60;;;30.08;;
41293;SDS011;27037;52.010;4.446;2023-04-08T09:01:51;45.30;;;28.70;;
41293;SDS011;27037;52.010;4.446;2023-04-08T09:04:17;42.95;;;27.85;;
41293;SDS011;27037;52.010;4.446;2023-04-08T09:06:47;42.30;;;27.40;;
41293;SDS011;27037;52.010;4.446;2023-04-08T09:09:14;41.88;;;27.10;;
41293;SDS011;27037;52.010;4.446;2023-04-08T09:11:44;42.72;;;27.52;;
41293;SDS011;27037;52.010;4.446;2023-04-08T09:14:23;39.33;;;26.02;;
41293;SDS011;27037;52.010;4.446;2023-04-08T09:16:50;40.85;;;26.90;;
41293;SDS011;27037;52.010;4.446;2023-04-08T09:19:16;37.60;;;25.98;;
41293;SDS011;27037;52.010;4.446;2023-04-08T09:21:42;38.22;;;25.73;;
41293;SDS011;27037;52.010;4.446;2023-04-08T09:24:09;35.65;;;24.65;;
41293;SDS011;27037;52.010;4.446;2023-04-08T09:26:51;35.97;;;24.58;;
41293;SDS011;27037;52.010;4.446;2023-04-08T09:29:17;35.15;;;23.98;;
41293;SDS011;27037;52.010;4.446;2023-04-08T09:31:42;34.40;;;23.42;;
41293;SDS011;27037;52.010;4.446;2023-04-08T09:34:17;32.45;;;22.75;;
41293;SDS011;27037;52.010;4.446;2023-04-08T09:36:45;29.35;;;21.73;;
41293;SDS011;27037;52.010;4.446;2023-04-08T09:39:12;30.17;;;21.63;;
41293;SDS011;27037;52.010;4.446;2023-04-08T09:41:38;31.70;;;21.30;;
41293;SDS011;27037;52.010;4.446;2023-04-08T09:44:11;28.73;;;21.48;;
41293;SDS011;27037;52.010;4.446;2023-04-08T09:49:12;32.10;;;22.38;;
41293;SDS011;27037;52.010;4.446;2023-04-08T09:52:50;31.40;;;22.75;;
41293;SDS011;27037;52.010;4.446;2023-04-08T09:55:05;32.03;;;23.88;;
41293;SDS011;27037;52.010;4.446;2023-04-08T10:03:26;32.13;;;24.33;;
41293;SDS011;27037;52.010;4.446;2023-04-08T10:05:35;34.25;;;24.13;;
41293;SDS011;27037;52.010;4.446;2023-04-08T10:08:02;35.45;;;25.67;;
41293;SDS011;27037;52.010;4.446;2023-04-08T10:10:30;35.90;;;26.38;;
41293;SDS011;27037;52.010;4.446;2023-04-08T10:12:56;37.22;;;26.60;;
41293;SDS011;27037;52.010;4.446;2023-04-08T10:17:49;33.03;;;25.48;;
41293;SDS011;27037;52.010;4.446;2023-04-08T10:23:09;36.00;;;26.17;;
41293;SDS011;27037;52.010;4.446;2023-04-08T10:25:37;31.83;;;23.77;;
41293;SDS011;27037;52.010;4.446;2023-04-08T10:30:43;28.85;;;22.23;;
41293;SDS011;27037;52.010;4.446;2023-04-08T10:33:11;29.67;;;21.83;;
41293;SDS011;27037;52.010;4.446;2023-04-08T10:35:59;29.25;;;21.88;;
41293;SDS011;27037;52.010;4.446;2023-04-08T10:38:34;29.65;;;21.98;;
41293;SDS011;27037;52.010;4.446;2023-04-08T10:40:59;26.67;;;20.98;;
41293;SDS011;27037;52.010;4.446;2023-04-08T10:43:27;26.88;;;20.65;;
41293;SDS011;27037;52.010;4.446;2023-04-08T10:45:57;30.45;;;21.33;;
41293;SDS011;27037;52.010;4.446;2023-04-08T10:48:23;29.13;;;20.70;;
41293;SDS011;27037;52.010;4.446;2023-04-08T10:50:53;25.08;;;19.85;;
41293;SDS011;27037;52.010;4.446;2023-04-08T10:53:26;28.23;;;20.33;;
41293;SDS011;27037;52.010;4.446;2023-04-08T10:58:48;26.20;;;19.98;;
41293;SDS011;27037;52.010;4.446;2023-04-08T11:01:15;26.42;;;20.48;;
41293;SDS011;27037;52.010;4.446;2023-04-08T11:03:41;25.35;;;19.77;;
41293;SDS011;27037;52.010;4.446;2023-04-08T11:06:07;25.33;;;19.27;;
41293;SDS011;27037;52.010;4.446;2023-04-08T11:08:33;25.38;;;18.33;;
41293;SDS011;27037;52.010;4.446;2023-04-08T11:11:00;23.60;;;17.98;;
41293;SDS011;27037;52.010;4.446;2023-04-08T11:13:27;22.75;;;17.80;;
41293;SDS011;27037;52.010;4.446;2023-04-08T11:15:53;21.85;;;17.65;;
41293;SDS011;27037;52.010;4.446;2023-04-08T11:18:22;28.02;;;15.73;;
41293;SDS011;27037;52.010;4.446;2023-04-08T11:20:49;28.05;;;16.85;;
41293;SDS011;27037;52.010;4.446;2023-04-08T11:23:16;21.33;;;15.85;;
41293;SDS011;27037;52.010;4.446;2023-04-08T11:25:42;19.98;;;14.93;;
41293;SDS011;27037;52.010;4.446;2023-04-08T11:28:09;19.25;;;15.18;;
41293;SDS011;27037;52.010;4.446;2023-04-08T11:30:36;18.92;;;14.25;;
41293;SDS011;27037;52.010;4.446;2023-04-08T11:33:04;20.77;;;14.65;;
41293;SDS011;27037;52.010;4.446;2023-04-08T11:35:30;18.75;;;14.10;;
41293;SDS011;27037;52.010;4.446;2023-04-08T11:37:56;21.55;;;14.75;;
41293;SDS011;27037;52.010;4.446;2023-04-08T11:40:22;19.90;;;14.07;;
41293;SDS011;27037;52.010;4.446;2023-04-08T11:42:49;20.02;;;14.40;;
41293;SDS011;27037;52.010;4.446;2023-04-08T11:45:16;17.30;;;14.07;;
41293;SDS011;27037;52.010;4.446;2023-04-08T11:47:45;19.25;;;13.93;;
41293;SDS011;27037;52.010;4.446;2023-04-08T11:50:12;22.02;;;13.85;;
41293;SDS011;27037;52.010;4.446;2023-04-08T11:52:51;17.90;;;13.50;;
41293;SDS011;27037;52.010;4.446;2023-04-08T11:57:53;19.17;;;12.63;;
41293;SDS011;27037;52.010;4.446;2023-04-08T12:00:20;18.85;;;13.10;;
41293;SDS011;27037;52.010;4.446;2023-04-08T12:02:47;19.45;;;12.52;;
41293;SDS011;27037;52.010;4.446;2023-04-08T12:05:13;19.58;;;13.25;;
41293;SDS011;27037;52.010;4.446;2023-04-08T12:07:40;15.73;;;11.38;;
41293;SDS011;27037;52.010;4.446;2023-04-08T12:10:06;16.23;;;11.57;;
41293;SDS011;27037;52.010;4.446;2023-04-08T12:12:33;16.90;;;11.40;;
41293;SDS011;27037;52.010;4.446;2023-04-08T12:14:58;17.27;;;12.23;;
41293;SDS011;27037;52.010;4.446;2023-04-08T12:17:24;18.00;;;12.43;;
41293;SDS011;27037;52.010;4.446;2023-04-08T12:19:50;18.52;;;13.23;;
41293;SDS011;27037;52.010;4.446;2023-04-08T12:22:15;18.75;;;11.55;;
41293;SDS011;27037;52.010;4.446;2023-04-08T12:24:41;17.13;;;11.23;;
41293;SDS011;27037;52.010;4.446;2023-04-08T12:27:06;19.88;;;12.05;;
41293;SDS011;27037;52.010;4.446;2023-04-08T12:29:32;15.93;;;10.43;;
41293;SDS011;27037;52.010;4.446;2023-04-08T12:31:58;17.23;;;12.40;;
41293;SDS011;27037;52.010;4.446;2023-04-08T12:34:24;17.90;;;12.52;;
41293;SDS011;27037;52.010;4.446;2023-04-08T12:36:49;16.65;;;12.70;;
41293;SDS011;27037;52.010;4.446;2023-04-08T12:39:15;16.05;;;12.25;;
41293;SDS011;27037;52.010;4.446;2023-04-08T12:41:41;16.73;;;12.45;;
41293;SDS011;27037;52.010;4.446;2023-04-08T12:44:06;18.90;;;13.15;;
41293;SDS011;27037;52.010;4.446;2023-04-08T12:46:32;17.98;;;12.38;;
41293;SDS011;27037;52.010;4.446;2023-04-08T12:48:58;15.82;;;11.50;;
41293;SDS011;27037;52.010;4.446;2023-04-08T12:51:23;16.88;;;11.93;;
41293;SDS011;27037;52.010;4.446;2023-04-08T12:53:53;18.45;;;11.75;;
41293;SDS011;27037;52.010;4.446;2023-04-08T12:56:18;16.60;;;11.98;;
41293;SDS011;27037;52.010;4.446;2023-04-08T12:58:45;17.15;;;11.82;;
41293;SDS011;27037;52.010;4.446;2023-04-08T13:01:11;15.82;;;11.57;;
41293;SDS011;27037;52.010;4.446;2023-04-08T13:03:36;17.05;;;11.98;;
41293;SDS011;27037;52.010;4.446;2023-04-08T13:06:02;17.13;;;11.27;;
41293;SDS011;27037;52.010;4.446;2023-04-08T13:08:28;14.77;;;10.88;;
41293;SDS011;27037;52.010;4.446;2023-04-08T13:10:53;16.98;;;11.80;;
41293;SDS011;27037;52.010;4.446;2023-04-08T13:13:19;15.35;;;11.98;;
41293;SDS011;27037;52.010;4.446;2023-04-08T13:15:45;17.38;;;11.73;;
41293;SDS011;27037;52.010;4.446;2023-04-08T13:18:11;15.73;;;11.88;;
41293;SDS011;27037;52.010;4.446;2023-04-08T13:20:37;16.33;;;12.05;;
41293;SDS011;27037;52.010;4.446;2023-04-08T13:23:03;16.27;;;12.52;;
41293;SDS011;27037;52.010;4.446;2023-04-08T13:25:28;21.65;;;11.95;;
41293;SDS011;27037;52.010;4.446;2023-04-08T13:27:54;17.38;;;12.02;;
41293;SDS011;27037;52.010;4.446;2023-04-08T13:30:20;16.67;;;12.02;;
41293;SDS011;27037;52.010;4.446;2023-04-08T13:32:46;19.33;;;12.23;;
41293;SDS011;27037;52.010;4.446;2023-04-08T13:35:11;18.52;;;12.88;;
41293;SDS011;27037;52.010;4.446;2023-04-08T13:37:37;18.77;;;12.43;;
41293;SDS011;27037;52.010;4.446;2023-04-08T13:40:03;20.55;;;13.18;;
41293;SDS011;27037;52.010;4.446;2023-04-08T13:42:29;17.52;;;11.98;;
41293;SDS011;27037;52.010;4.446;2023-04-08T13:44:58;15.75;;;11.40;;
41293;SDS011;27037;52.010;4.446;2023-04-08T13:47:24;17.30;;;11.38;;
41293;SDS011;27037;52.010;4.446;2023-04-08T13:49:50;17.75;;;12.23;;
41293;SDS011;27037;52.010;4.446;2023-04-08T13:52:17;16.92;;;11.65;;
41293;SDS011;27037;52.010;4.446;2023-04-08T13:54:42;17.23;;;11.70;;
41293;SDS011;27037;52.010;4.446;2023-04-08T13:57:08;18.35;;;11.43;;
41293;SDS011;27037;52.010;4.446;2023-04-08T13:59:34;19.00;;;12.60;;
41293;SDS011;27037;52.010;4.446;2023-04-08T14:02:00;16.23;;;11.80;;
41293;SDS011;27037;52.010;4.446;2023-04-08T14:04:26;15.90;;;11.18;;
41293;SDS011;27037;52.010;4.446;2023-04-08T14:06:51;18.25;;;12.10;;
41293;SDS011;27037;52.010;4.446;2023-04-08T14:09:21;16.75;;;12.23;;
41293;SDS011;27037;52.010;4.446;2023-04-08T14:11:47;17.42;;;11.68;;
41293;SDS011;27037;52.010;4.446;2023-04-08T14:14:13;15.75;;;11.30;;
41293;SDS011;27037;52.010;4.446;2023-04-08T14:16:39;16.45;;;11.73;;
41293;SDS011;27037;52.010;4.446;2023-04-08T14:19:05;15.30;;;11.07;;
41293;SDS011;27037;52.010;4.446;2023-04-08T14:21:31;15.70;;;11.27;;
41293;SDS011;27037;52.010;4.446;2023-04-08T14:23:56;15.77;;;11.00;;
41293;SDS011;27037;52.010;4.446;2023-04-08T14:26:22;17.67;;;10.82;;
41293;SDS011;27037;52.010;4.446;2023-04-08T14:28:48;17.35;;;12.30;;
41293;SDS011;27037;52.010;4.446;2023-04-08T14:31:14;19.75;;;11.13;;
41293;SDS011;27037;52.010;4.446;2023-04-08T14:33:39;16.67;;;11.18;;
41293;SDS011;27037;52.010;4.446;2023-04-08T14:36:06;17.88;;;11.88;;
41293;SDS011;27037;52.010;4.446;2023-04-08T14:38:32;16.70;;;11.00;;
41293;SDS011;27037;52.010;4.446;2023-04-08T14:40:58;18.30;;;11.60;;
41293;SDS011;27037;52.010;4.446;2023-04-08T14:43:23;17.67;;;11.48;;